Site contains unofficial IBTrACS data. Visit the IBTrACS Website to access archived data.

1883 NOT_NAMED (1883080S15054)


IBTrACS version v04r00. Visit IBTrACS website for data access.
Please direct all questions to the IBTrACS Q and A forum

Storm track - Intensity - Wind Radii - Intensity Data - Source Data - All data

Summary Information

Storm ID 1883080S15054
Start Mar 21 06Z
End Mar 27 06Z
ATCF IDs
Track status Best track data.

Storm track plot

Map of storm track

Intensity plots

No Intensity information for this storm


Radial wind information

No radial wind information for this storm


Position and Intensity Table

BASIN ISO_TIME_________ NATURE LAT LON
degrees north degrees east
SI 1883-03-21 06:00:00 NR -15.00 53.70
SI 09:00:00 NR -14.97 53.62
SI 12:00:00 NR -14.95 53.53
SI 15:00:00 NR -14.98 53.45
SI 18:00:00 NR -15.07 53.37
SI 21:00:00 NR -15.23 53.30
SI 1883-03-22 00:00:00 NR -15.49 53.23
SI 03:00:00 NR -15.88 53.16
SI 06:00:00 NR -16.40 53.10
SI 09:00:00 NR -17.07 53.05
SI 12:00:00 NR -17.87 53.01
SI 15:00:00 NR -18.76 52.99
SI 18:00:00 NR -19.71 53.00
SI 21:00:00 NR -20.68 53.05
SI 1883-03-23 00:00:00 NR -21.64 53.14
SI 03:00:00 NR -22.56 53.29
SI 06:00:00 NR -23.40 53.50
SI 09:00:00 NR -24.03 53.77
SI 12:00:00 NR -24.59 54.11
SI 15:00:00 NR -25.10 54.50
SI 18:00:00 NR -25.57 54.94
SI 21:00:00 NR -26.02 55.42
SI 1883-03-24 00:00:00 NR -26.44 55.92
SI 03:00:00 NR -26.87 56.46
SI 06:00:00 NR -27.30 57.00
SI 09:00:00 NR -27.80 57.51
SI 12:00:00 NR -28.30 58.05
SI 15:00:00 NR -28.80 58.61
SI 18:00:00 NR -29.31 59.18
SI 21:00:00 NR -29.81 59.77
SI 1883-03-25 00:00:00 NR -30.31 60.37
SI 03:00:00 NR -30.81 60.98
SI 06:00:00 NR -31.30 61.60
SI 09:00:00 NR -31.84 62.29
SI 12:00:00 NR -32.39 63.01
SI 15:00:00 NR -32.93 63.73
SI 18:00:00 NR -33.45 64.44
SI 21:00:00 NR -33.94 65.12
SI 1883-03-26 00:00:00 NR -34.38 65.75
SI 03:00:00 NR -34.77 66.32
SI 06:00:00 NR -35.10 66.80
SI 09:00:00 NR -35.36 67.18
SI 12:00:00 NR -35.55 67.46
SI 15:00:00 NR -35.69 67.66
SI 18:00:00 NR -35.79 67.79
SI 21:00:00 NR -35.85 67.87
SI 1883-03-27 00:00:00 NR -35.88 67.90
SI 03:00:00 NR -35.89 67.91
SI 06:00:00 NR -35.90 67.90

Source Information

Agency Information
USA
TOKYO
CMA
HKO
NEWDELHI
REUNION WMO-Best-Tracks.txt:Line=1329:xxxx883196
BOM
NADI
WELLINGTON
DS824
TD9636
TD9635
NEUMANN
MLC

All available IBTrACS Data

SEASON BASIN SUBBASIN ISO_TIME_________ NATURE LAT LON WMO AGENCY DIST2LAND LANDFALL IFLAG USA SSHS REUNION LAT REUNION LON REUNION TYPE REUNION TNUM STORM SPEED STORM DIR
Year degrees north degrees east km km 1 degrees north degrees east 1 kts degrees
1883 SI MM 1883-03-21 06:00:00 NR -15.00 53.70 reunion 344 333 _____O________ -1 -15.00 53.70 99 9.90 2 292
1883 SI MM 09:00:00 NR -14.97 53.62 333 322 _____P________ -1 -14.97 53.62 99 2 286
1883 SI MM 12:00:00 NR -14.95 53.53 322 322 _____P________ -1 -14.95 53.53 99 2 265
1883 SI MM 15:00:00 NR -14.98 53.45 322 311 _____P________ -1 -14.98 53.45 99 2 234
1883 SI MM 18:00:00 NR -15.07 53.37 311 300 _____P________ -1 -15.07 53.37 99 3 210
1883 SI MM 21:00:00 NR -15.23 53.30 300 289 _____P________ -1 -15.23 53.30 99 5 199
1883 SI MM 1883-03-22 00:00:00 NR -15.49 53.23 289 289 _____P________ -1 -15.49 53.23 99 7 192
1883 SI MM 03:00:00 NR -15.88 53.16 294 286 _____P________ -1 -15.88 53.16 99 9 187
1883 SI MM 06:00:00 NR -16.40 53.10 reunion 299 299 _____O________ -1 -16.40 53.10 99 9.90 12 185
1883 SI MM 09:00:00 NR -17.07 53.05 322 322 _____P________ -1 -17.07 53.05 99 15 184
1883 SI MM 12:00:00 NR -17.87 53.01 361 352 _____P________ -1 -17.87 53.01 99 17 182
1883 SI MM 15:00:00 NR -18.76 52.99 344 277 _____P________ -1 -18.76 52.99 99 19 181
1883 SI MM 18:00:00 NR -19.71 53.00 277 235 _____P________ -1 -19.71 53.00 99 19 178
1883 SI MM 21:00:00 NR -20.68 53.05 222 217 _____P________ -1 -20.68 53.05 99 20 176
1883 SI MM 1883-03-23 00:00:00 NR -21.64 53.14 224 217 _____P________ -1 -21.64 53.14 99 19 173
1883 SI MM 03:00:00 NR -22.56 53.29 252 252 _____P________ -1 -22.56 53.29 99 18 169
1883 SI MM 06:00:00 NR -23.40 53.50 reunion 298 298 _____O________ -1 -23.40 53.50 99 9.90 15 163
1883 SI MM 09:00:00 NR -24.03 53.77 338 338 _____P________ -1 -24.03 53.77 99 13 155
1883 SI MM 12:00:00 NR -24.59 54.11 388 388 _____P________ -1 -24.59 54.11 99 13 148
1883 SI MM 15:00:00 NR -25.10 54.50 428 428 _____P________ -1 -25.10 54.50 99 12 143
1883 SI MM 18:00:00 NR -25.57 54.94 474 473 _____P________ -1 -25.57 54.94 99 12 138
1883 SI MM 21:00:00 NR -26.02 55.42 514 514 _____P________ -1 -26.02 55.42 99 12 134
1883 SI MM 1883-03-24 00:00:00 NR -26.44 55.92 559 559 _____P________ -1 -26.44 55.92 99 13 132
1883 SI MM 03:00:00 NR -26.87 56.46 621 621 _____P________ -1 -26.87 56.46 99 13 132
1883 SI MM 06:00:00 NR -27.30 57.00 reunion 674 674 _____O________ -1 -27.30 57.00 99 9.90 13 135
1883 SI MM 09:00:00 NR -27.80 57.51 740 740 _____P________ -1 -27.80 57.51 99 14 137
1883 SI MM 12:00:00 NR -28.30 58.05 811 811 _____P________ -1 -28.30 58.05 99 14 136
1883 SI MM 15:00:00 NR -28.80 58.61 880 880 _____P________ -1 -28.80 58.61 99 14 135
1883 SI MM 18:00:00 NR -29.31 59.18 953 953 _____P________ -1 -29.31 59.18 99 14 135
1883 SI MM 21:00:00 NR -29.81 59.77 1028 1028 _____P________ -1 -29.81 59.77 99 14 134
1883 SI MM 1883-03-25 00:00:00 NR -30.31 60.37 1103 1103 _____P________ -1 -30.31 60.37 99 14 134
1883 SI MM 03:00:00 NR -30.81 60.98 1179 1179 _____P________ -1 -30.81 60.98 99 15 133
1883 SI MM 06:00:00 NR -31.30 61.60 reunion 1256 1256 _____O________ -1 -31.30 61.60 99 9.90 15 133
1883 SI MM 09:00:00 NR -31.84 62.29 1337 1337 _____P________ -1 -31.84 62.29 99 16 132
1883 SI MM 12:00:00 NR -32.39 63.01 1429 1429 _____P________ -1 -32.39 63.01 99 16 132
1883 SI MM 15:00:00 NR -32.93 63.73 1506 1506 _____P________ -1 -32.93 63.73 99 16 131
1883 SI MM 18:00:00 NR -33.45 64.44 1584 1584 _____P________ -1 -33.45 64.44 99 15 131
1883 SI MM 21:00:00 NR -33.94 65.12 1664 1623 _____P________ -1 -33.94 65.12 99 14 130
1883 SI MM 1883-03-26 00:00:00 NR -34.38 65.75 1621 1571 _____P________ -1 -34.38 65.75 99 13 130
1883 SI MM 03:00:00 NR -34.77 66.32 1571 1533 _____P________ -1 -34.77 66.32 99 11 130
1883 SI MM 06:00:00 NR -35.10 66.80 reunion 1533 1507 _____O________ -1 -35.10 66.80 99 9.90 9 130
1883 SI MM 09:00:00 NR -35.36 67.18 1496 1484 _____P________ -1 -35.36 67.18 99 7 130
1883 SI MM 12:00:00 NR -35.55 67.46 1472 1460 _____P________ -1 -35.55 67.46 99 5 130
1883 SI MM 15:00:00 NR -35.69 67.66 1460 1448 _____P________ -1 -35.69 67.66 99 4 131
1883 SI MM 18:00:00 NR -35.79 67.79 1448 1448 _____P________ -1 -35.79 67.79 99 2 133
1883 SI MM 21:00:00 NR -35.85 67.87 1448 1436 _____P________ -1 -35.85 67.87 99 1 138
1883 SI MM 1883-03-27 00:00:00 NR -35.88 67.90 1436 1436 _____P________ -1 -35.88 67.90 99 1 149
1883 SI MM 03:00:00 NR -35.89 67.91 1436 1436 _____P________ -1 -35.89 67.91 99 0 0
1883 SI MM 06:00:00 NR -35.90 67.90 reunion 1436 _____O________ -1 -35.90 67.90 99 9.90 0 0